sensor_id;sensor_type;location;lat;lon;timestamp;P1;durP1;ratioP1;P2;durP2;ratioP2
2710;SDS011;20721;47.402;8.550;2022-08-25T00:00:42;5.46;;;5.46;;
2710;SDS011;20721;47.402;8.550;2022-08-25T00:02:40;5.49;;;5.49;;
2710;SDS011;20721;47.402;8.550;2022-08-25T00:03:48;5.61;;;5.61;;
2710;SDS011;20721;47.402;8.550;2022-08-25T00:05:43;6.18;;;6.18;;
2710;SDS011;20721;47.402;8.550;2022-08-25T00:06:40;5.88;;;5.88;;
2710;SDS011;20721;47.402;8.550;2022-08-25T00:07:40;5.67;;;5.67;;
2710;SDS011;20721;47.402;8.550;2022-08-25T00:08:41;5.61;;;5.61;;
2710;SDS011;20721;47.402;8.550;2022-08-25T00:10:41;5.62;;;5.62;;
2710;SDS011;20721;47.402;8.550;2022-08-25T00:13:43;5.75;;;5.75;;
2710;SDS011;20721;47.402;8.550;2022-08-25T00:14:43;6.13;;;6.13;;
2710;SDS011;20721;47.402;8.550;2022-08-25T00:15:41;5.36;;;5.36;;
2710;SDS011;20721;47.402;8.550;2022-08-25T00:16:41;5.64;;;5.64;;
2710;SDS011;20721;47.402;8.550;2022-08-25T00:17:40;6.40;;;6.40;;
2710;SDS011;20721;47.402;8.550;2022-08-25T00:18:40;5.31;;;5.31;;
2710;SDS011;20721;47.402;8.550;2022-08-25T00:19:42;5.95;;;5.95;;
2710;SDS011;20721;47.402;8.550;2022-08-25T00:20:40;5.37;;;5.37;;
2710;SDS011;20721;47.402;8.550;2022-08-25T00:21:41;5.46;;;5.46;;
2710;SDS011;20721;47.402;8.550;2022-08-25T00:22:40;5.67;;;5.67;;
2710;SDS011;20721;47.402;8.550;2022-08-25T00:23:40;6.11;;;6.11;;
2710;SDS011;20721;47.402;8.550;2022-08-25T00:25:40;5.28;;;5.28;;
2710;SDS011;20721;47.402;8.550;2022-08-25T00:27:40;5.39;;;5.39;;
2710;SDS011;20721;47.402;8.550;2022-08-25T00:28:40;5.78;;;5.78;;
2710;SDS011;20721;47.402;8.550;2022-08-25T00:29:40;5.86;;;5.86;;
2710;SDS011;20721;47.402;8.550;2022-08-25T00:34:45;5.79;;;5.79;;
2710;SDS011;20721;47.402;8.550;2022-08-25T00:36:40;5.37;;;5.37;;
2710;SDS011;20721;47.402;8.550;2022-08-25T00:38:41;5.96;;;5.96;;
2710;SDS011;20721;47.402;8.550;2022-08-25T00:39:40;6.11;;;6.11;;
2710;SDS011;20721;47.402;8.550;2022-08-25T00:41:41;5.92;;;5.92;;
2710;SDS011;20721;47.402;8.550;2022-08-25T00:42:40;5.65;;;5.65;;
2710;SDS011;20721;47.402;8.550;2022-08-25T00:44:41;6.47;;;6.47;;
2710;SDS011;20721;47.402;8.550;2022-08-25T00:45:41;5.96;;;5.96;;
2710;SDS011;20721;47.402;8.550;2022-08-25T00:46:44;5.42;;;5.42;;
2710;SDS011;20721;47.402;8.550;2022-08-25T00:48:40;6.33;;;6.33;;
2710;SDS011;20721;47.402;8.550;2022-08-25T00:49:42;6.26;;;6.26;;
2710;SDS011;20721;47.402;8.550;2022-08-25T00:50:42;6.78;;;6.78;;
2710;SDS011;20721;47.402;8.550;2022-08-25T00:51:50;6.15;;;6.15;;
2710;SDS011;20721;47.402;8.550;2022-08-25T00:52:44;7.16;;;7.16;;
2710;SDS011;20721;47.402;8.550;2022-08-25T00:55:43;6.77;;;6.77;;
2710;SDS011;20721;47.402;8.550;2022-08-25T00:56:41;5.93;;;5.93;;
2710;SDS011;20721;47.402;8.550;2022-08-25T00:57:50;6.52;;;6.52;;
2710;SDS011;20721;47.402;8.550;2022-08-25T00:59:40;7.08;;;6.85;;
2710;SDS011;20721;47.402;8.550;2022-08-25T01:02:40;6.48;;;6.48;;
2710;SDS011;20721;47.402;8.550;2022-08-25T01:03:45;6.26;;;6.26;;
2710;SDS011;20721;47.402;8.550;2022-08-25T01:05:40;6.69;;;6.69;;
2710;SDS011;20721;47.402;8.550;2022-08-25T01:06:43;6.76;;;6.76;;
2710;SDS011;20721;47.402;8.550;2022-08-25T01:07:40;6.53;;;6.53;;
2710;SDS011;20721;47.402;8.550;2022-08-25T01:08:42;6.17;;;6.17;;
2710;SDS011;20721;47.402;8.550;2022-08-25T01:09:41;6.12;;;6.12;;
2710;SDS011;20721;47.402;8.550;2022-08-25T01:10:42;6.07;;;6.07;;
2710;SDS011;20721;47.402;8.550;2022-08-25T01:11:41;6.85;;;6.85;;
2710;SDS011;20721;47.402;8.550;2022-08-25T01:12:40;6.50;;;6.50;;
2710;SDS011;20721;47.402;8.550;2022-08-25T01:14:41;6.01;;;6.01;;
2710;SDS011;20721;47.402;8.550;2022-08-25T01:15:41;6.84;;;6.84;;
2710;SDS011;20721;47.402;8.550;2022-08-25T01:16:42;6.52;;;6.52;;
2710;SDS011;20721;47.402;8.550;2022-08-25T01:18:51;5.95;;;5.95;;
2710;SDS011;20721;47.402;8.550;2022-08-25T01:19:42;7.02;;;7.02;;
2710;SDS011;20721;47.402;8.550;2022-08-25T01:20:41;7.27;;;7.27;;
2710;SDS011;20721;47.402;8.550;2022-08-25T01:21:48;7.04;;;7.04;;
2710;SDS011;20721;47.402;8.550;2022-08-25T01:22:41;6.76;;;6.76;;
2710;SDS011;20721;47.402;8.550;2022-08-25T01:23:41;7.14;;;7.14;;
2710;SDS011;20721;47.402;8.550;2022-08-25T01:24:51;6.70;;;6.70;;
2710;SDS011;20721;47.402;8.550;2022-08-25T01:26:42;7.81;;;7.81;;
2710;SDS011;20721;47.402;8.550;2022-08-25T01:27:40;6.76;;;6.76;;
2710;SDS011;20721;47.402;8.550;2022-08-25T01:28:41;6.43;;;6.43;;
2710;SDS011;20721;47.402;8.550;2022-08-25T01:29:41;7.35;;;7.35;;
2710;SDS011;20721;47.402;8.550;2022-08-25T01:31:41;7.28;;;7.28;;
2710;SDS011;20721;47.402;8.550;2022-08-25T01:34:43;6.67;;;6.67;;
2710;SDS011;20721;47.402;8.550;2022-08-25T01:35:42;7.11;;;7.11;;
2710;SDS011;20721;47.402;8.550;2022-08-25T01:37:42;7.25;;;7.25;;
2710;SDS011;20721;47.402;8.550;2022-08-25T01:38:40;7.00;;;7.00;;
2710;SDS011;20721;47.402;8.550;2022-08-25T01:39:43;6.97;;;6.97;;
2710;SDS011;20721;47.402;8.550;2022-08-25T01:40:41;7.48;;;7.48;;
2710;SDS011;20721;47.402;8.550;2022-08-25T01:44:42;7.45;;;7.45;;
2710;SDS011;20721;47.402;8.550;2022-08-25T01:46:41;6.95;;;6.95;;
2710;SDS011;20721;47.402;8.550;2022-08-25T01:47:41;7.05;;;7.05;;
2710;SDS011;20721;47.402;8.550;2022-08-25T01:48:41;6.14;;;6.14;;
2710;SDS011;20721;47.402;8.550;2022-08-25T01:49:41;6.99;;;6.99;;
2710;SDS011;20721;47.402;8.550;2022-08-25T01:50:41;7.02;;;7.02;;
2710;SDS011;20721;47.402;8.550;2022-08-25T01:51:47;6.99;;;6.99;;
2710;SDS011;20721;47.402;8.550;2022-08-25T01:54:40;6.98;;;6.98;;
2710;SDS011;20721;47.402;8.550;2022-08-25T01:56:40;7.03;;;7.03;;
2710;SDS011;20721;47.402;8.550;2022-08-25T01:57:40;7.13;;;7.13;;
2710;SDS011;20721;47.402;8.550;2022-08-25T01:58:43;6.80;;;6.80;;
2710;SDS011;20721;47.402;8.550;2022-08-25T02:00:43;7.39;;;7.39;;
2710;SDS011;20721;47.402;8.550;2022-08-25T02:01:41;7.35;;;7.35;;
2710;SDS011;20721;47.402;8.550;2022-08-25T02:02:43;7.14;;;7.14;;
2710;SDS011;20721;47.402;8.550;2022-08-25T02:03:46;6.94;;;6.94;;
2710;SDS011;20721;47.402;8.550;2022-08-25T02:04:41;7.19;;;7.19;;
2710;SDS011;20721;47.402;8.550;2022-08-25T02:05:43;8.58;;;8.58;;
2710;SDS011;20721;47.402;8.550;2022-08-25T02:06:42;6.99;;;6.99;;
2710;SDS011;20721;47.402;8.550;2022-08-25T02:07:42;7.11;;;7.11;;
2710;SDS011;20721;47.402;8.550;2022-08-25T02:08:41;7.47;;;7.47;;
2710;SDS011;20721;47.402;8.550;2022-08-25T02:10:41;7.79;;;7.79;;
2710;SDS011;20721;47.402;8.550;2022-08-25T02:11:42;7.05;;;7.05;;
2710;SDS011;20721;47.402;8.550;2022-08-25T02:12:41;8.13;;;8.13;;
2710;SDS011;20721;47.402;8.550;2022-08-25T02:13:42;7.95;;;7.95;;
2710;SDS011;20721;47.402;8.550;2022-08-25T02:14:40;7.17;;;7.17;;
2710;SDS011;20721;47.402;8.550;2022-08-25T02:15:41;7.24;;;7.24;;
2710;SDS011;20721;47.402;8.550;2022-08-25T02:18:40;7.42;;;7.42;;
2710;SDS011;20721;47.402;8.550;2022-08-25T02:19:40;7.32;;;7.32;;
2710;SDS011;20721;47.402;8.550;2022-08-25T02:20:40;7.53;;;7.53;;
2710;SDS011;20721;47.402;8.550;2022-08-25T02:21:41;7.85;;;7.85;;
2710;SDS011;20721;47.402;8.550;2022-08-25T02:22:40;8.02;;;8.02;;
2710;SDS011;20721;47.402;8.550;2022-08-25T02:23:40;7.63;;;7.63;;
2710;SDS011;20721;47.402;8.550;2022-08-25T02:24:40;7.96;;;7.96;;
2710;SDS011;20721;47.402;8.550;2022-08-25T02:25:41;8.04;;;8.04;;
2710;SDS011;20721;47.402;8.550;2022-08-25T02:26:41;7.73;;;7.73;;
2710;SDS011;20721;47.402;8.550;2022-08-25T02:28:41;7.35;;;7.35;;
2710;SDS011;20721;47.402;8.550;2022-08-25T02:31:41;7.16;;;7.16;;
2710;SDS011;20721;47.402;8.550;2022-08-25T02:32:40;7.21;;;7.21;;
2710;SDS011;20721;47.402;8.550;2022-08-25T02:33:40;8.29;;;8.29;;
2710;SDS011;20721;47.402;8.550;2022-08-25T02:34:40;6.96;;;6.96;;
2710;SDS011;20721;47.402;8.550;2022-08-25T02:35:41;7.16;;;7.16;;
2710;SDS011;20721;47.402;8.550;2022-08-25T02:36:41;7.80;;;7.80;;
2710;SDS011;20721;47.402;8.550;2022-08-25T02:37:41;7.92;;;7.92;;
2710;SDS011;20721;47.402;8.550;2022-08-25T02:38:40;7.18;;;7.18;;
2710;SDS011;20721;47.402;8.550;2022-08-25T02:39:40;7.84;;;7.84;;
2710;SDS011;20721;47.402;8.550;2022-08-25T02:40:40;7.99;;;7.99;;
2710;SDS011;20721;47.402;8.550;2022-08-25T02:41:42;8.04;;;8.04;;
2710;SDS011;20721;47.402;8.550;2022-08-25T02:42:40;7.64;;;7.64;;
2710;SDS011;20721;47.402;8.550;2022-08-25T02:43:41;7.43;;;7.43;;
2710;SDS011;20721;47.402;8.550;2022-08-25T02:44:40;7.31;;;7.31;;
2710;SDS011;20721;47.402;8.550;2022-08-25T02:45:40;7.78;;;7.78;;
2710;SDS011;20721;47.402;8.550;2022-08-25T02:46:41;7.27;;;7.27;;
2710;SDS011;20721;47.402;8.550;2022-08-25T02:47:41;7.33;;;7.33;;
2710;SDS011;20721;47.402;8.550;2022-08-25T02:48:40;6.36;;;6.36;;
2710;SDS011;20721;47.402;8.550;2022-08-25T02:49:41;7.65;;;7.65;;
2710;SDS011;20721;47.402;8.550;2022-08-25T02:50:46;6.79;;;6.79;;
2710;SDS011;20721;47.402;8.550;2022-08-25T02:51:41;6.43;;;6.43;;
2710;SDS011;20721;47.402;8.550;2022-08-25T02:53:41;6.60;;;6.60;;
2710;SDS011;20721;47.402;8.550;2022-08-25T02:54:40;7.09;;;7.09;;
2710;SDS011;20721;47.402;8.550;2022-08-25T02:55:44;5.71;;;5.71;;
2710;SDS011;20721;47.402;8.550;2022-08-25T02:58:41;6.13;;;6.13;;
2710;SDS011;20721;47.402;8.550;2022-08-25T02:59:40;5.95;;;5.95;;
2710;SDS011;20721;47.402;8.550;2022-08-25T03:01:41;6.81;;;6.81;;
2710;SDS011;20721;47.402;8.550;2022-08-25T03:09:44;6.46;;;6.46;;
2710;SDS011;20721;47.402;8.550;2022-08-25T03:10:41;7.10;;;7.10;;
2710;SDS011;20721;47.402;8.550;2022-08-25T03:11:41;6.30;;;6.30;;
2710;SDS011;20721;47.402;8.550;2022-08-25T03:12:40;6.57;;;6.57;;
2710;SDS011;20721;47.402;8.550;2022-08-25T03:14:40;7.15;;;7.15;;
2710;SDS011;20721;47.402;8.550;2022-08-25T03:15:41;6.95;;;6.95;;
2710;SDS011;20721;47.402;8.550;2022-08-25T03:16:41;7.26;;;7.26;;
2710;SDS011;20721;47.402;8.550;2022-08-25T03:18:41;7.04;;;7.04;;
2710;SDS011;20721;47.402;8.550;2022-08-25T03:19:40;7.21;;;7.21;;
2710;SDS011;20721;47.402;8.550;2022-08-25T03:20:40;7.34;;;7.34;;
2710;SDS011;20721;47.402;8.550;2022-08-25T03:21:41;7.52;;;7.52;;
2710;SDS011;20721;47.402;8.550;2022-08-25T03:22:41;6.85;;;6.85;;
2710;SDS011;20721;47.402;8.550;2022-08-25T03:23:41;7.05;;;7.05;;
2710;SDS011;20721;47.402;8.550;2022-08-25T03:24:41;6.88;;;6.88;;
2710;SDS011;20721;47.402;8.550;2022-08-25T03:25:52;8.28;;;8.28;;
2710;SDS011;20721;47.402;8.550;2022-08-25T03:26:50;8.08;;;8.08;;
2710;SDS011;20721;47.402;8.550;2022-08-25T03:27:41;8.24;;;8.24;;
2710;SDS011;20721;47.402;8.550;2022-08-25T03:28:42;7.36;;;7.36;;
2710;SDS011;20721;47.402;8.550;2022-08-25T03:29:42;7.34;;;7.34;;
2710;SDS011;20721;47.402;8.550;2022-08-25T03:30:41;7.34;;;7.34;;
2710;SDS011;20721;47.402;8.550;2022-08-25T03:31:42;7.29;;;7.29;;
2710;SDS011;20721;47.402;8.550;2022-08-25T03:32:41;7.20;;;7.20;;
2710;SDS011;20721;47.402;8.550;2022-08-25T03:34:40;7.53;;;7.53;;
2710;SDS011;20721;47.402;8.550;2022-08-25T03:35:41;7.98;;;7.98;;
2710;SDS011;20721;47.402;8.550;2022-08-25T03:36:41;7.90;;;7.90;;
2710;SDS011;20721;47.402;8.550;2022-08-25T03:37:40;7.85;;;7.85;;
2710;SDS011;20721;47.402;8.550;2022-08-25T03:38:41;8.02;;;8.02;;
2710;SDS011;20721;47.402;8.550;2022-08-25T03:39:41;7.67;;;7.67;;
2710;SDS011;20721;47.402;8.550;2022-08-25T03:40:41;7.21;;;7.21;;
2710;SDS011;20721;47.402;8.550;2022-08-25T03:41:42;6.92;;;6.92;;
2710;SDS011;20721;47.402;8.550;2022-08-25T03:42:41;8.41;;;8.41;;
2710;SDS011;20721;47.402;8.550;2022-08-25T03:43:41;8.39;;;8.39;;
2710;SDS011;20721;47.402;8.550;2022-08-25T03:44:40;8.30;;;8.30;;
2710;SDS011;20721;47.402;8.550;2022-08-25T03:45:41;7.41;;;7.41;;
2710;SDS011;20721;47.402;8.550;2022-08-25T03:46:45;8.06;;;8.06;;
2710;SDS011;20721;47.402;8.550;2022-08-25T03:47:41;8.37;;;8.37;;
2710;SDS011;20721;47.402;8.550;2022-08-25T03:48:41;8.24;;;8.24;;
2710;SDS011;20721;47.402;8.550;2022-08-25T03:49:43;7.89;;;7.89;;
2710;SDS011;20721;47.402;8.550;2022-08-25T03:50:45;7.90;;;7.90;;
2710;SDS011;20721;47.402;8.550;2022-08-25T03:51:44;7.48;;;7.48;;
2710;SDS011;20721;47.402;8.550;2022-08-25T03:52:40;7.86;;;7.86;;
2710;SDS011;20721;47.402;8.550;2022-08-25T03:53:40;8.16;;;8.16;;
2710;SDS011;20721;47.402;8.550;2022-08-25T03:54:40;7.16;;;7.16;;
2710;SDS011;20721;47.402;8.550;2022-08-25T03:55:42;7.56;;;7.56;;
2710;SDS011;20721;47.402;8.550;2022-08-25T03:56:41;7.62;;;7.62;;
2710;SDS011;20721;47.402;8.550;2022-08-25T03:57:40;7.69;;;7.69;;
2710;SDS011;20721;47.402;8.550;2022-08-25T04:00:41;7.99;;;7.99;;
2710;SDS011;20721;47.402;8.550;2022-08-25T04:01:42;8.21;;;8.21;;
2710;SDS011;20721;47.402;8.550;2022-08-25T04:02:47;7.20;;;7.20;;
2710;SDS011;20721;47.402;8.550;2022-08-25T04:03:41;8.04;;;8.04;;
2710;SDS011;20721;47.402;8.550;2022-08-25T04:04:41;7.88;;;7.88;;
2710;SDS011;20721;47.402;8.550;2022-08-25T04:05:43;8.50;;;8.50;;
2710;SDS011;20721;47.402;8.550;2022-08-25T04:06:42;7.85;;;7.84;;
2710;SDS011;20721;47.402;8.550;2022-08-25T04:07:41;7.89;;;7.89;;
2710;SDS011;20721;47.402;8.550;2022-08-25T04:08:41;7.70;;;7.70;;
2710;SDS011;20721;47.402;8.550;2022-08-25T04:09:46;7.08;;;7.08;;
2710;SDS011;20721;47.402;8.550;2022-08-25T04:10:41;7.67;;;7.67;;
2710;SDS011;20721;47.402;8.550;2022-08-25T04:11:41;6.89;;;6.89;;
2710;SDS011;20721;47.402;8.550;2022-08-25T04:13:41;7.42;;;7.42;;
2710;SDS011;20721;47.402;8.550;2022-08-25T04:14:41;7.80;;;7.80;;
2710;SDS011;20721;47.402;8.550;2022-08-25T04:15:41;7.70;;;7.70;;
2710;SDS011;20721;47.402;8.550;2022-08-25T04:16:42;8.21;;;8.21;;
2710;SDS011;20721;47.402;8.550;2022-08-25T04:17:41;8.38;;;8.38;;
2710;SDS011;20721;47.402;8.550;2022-08-25T04:18:41;7.53;;;7.53;;
2710;SDS011;20721;47.402;8.550;2022-08-25T04:20:41;8.71;;;8.71;;
2710;SDS011;20721;47.402;8.550;2022-08-25T04:22:42;7.40;;;7.40;;
2710;SDS011;20721;47.402;8.550;2022-08-25T04:23:41;7.97;;;7.97;;
2710;SDS011;20721;47.402;8.550;2022-08-25T04:24:41;8.28;;;8.28;;
2710;SDS011;20721;47.402;8.550;2022-08-25T04:25:41;8.72;;;8.72;;
2710;SDS011;20721;47.402;8.550;2022-08-25T04:30:41;7.60;;;7.60;;
2710;SDS011;20721;47.402;8.550;2022-08-25T04:33:41;8.99;;;8.99;;
2710;SDS011;20721;47.402;8.550;2022-08-25T04:34:41;7.48;;;7.48;;
2710;SDS011;20721;47.402;8.550;2022-08-25T04:35:46;8.43;;;8.43;;
2710;SDS011;20721;47.402;8.550;2022-08-25T04:36:41;7.45;;;7.45;;
2710;SDS011;20721;47.402;8.550;2022-08-25T04:39:41;7.72;;;7.72;;
2710;SDS011;20721;47.402;8.550;2022-08-25T04:40:41;8.38;;;8.38;;
2710;SDS011;20721;47.402;8.550;2022-08-25T04:41:41;7.65;;;7.65;;
2710;SDS011;20721;47.402;8.550;2022-08-25T04:43:41;7.52;;;7.52;;
2710;SDS011;20721;47.402;8.550;2022-08-25T04:44:41;7.91;;;7.91;;
2710;SDS011;20721;47.402;8.550;2022-08-25T04:45:44;7.66;;;7.66;;
2710;SDS011;20721;47.402;8.550;2022-08-25T04:46:42;7.96;;;7.96;;
2710;SDS011;20721;47.402;8.550;2022-08-25T04:48:42;7.29;;;7.29;;
2710;SDS011;20721;47.402;8.550;2022-08-25T04:50:41;7.47;;;7.47;;
2710;SDS011;20721;47.402;8.550;2022-08-25T04:51:46;6.62;;;6.62;;
2710;SDS011;20721;47.402;8.550;2022-08-25T04:53:42;7.49;;;7.49;;
2710;SDS011;20721;47.402;8.550;2022-08-25T04:55:41;7.53;;;7.53;;
2710;SDS011;20721;47.402;8.550;2022-08-25T04:57:41;6.64;;;6.64;;
2710;SDS011;20721;47.402;8.550;2022-08-25T04:59:41;8.29;;;8.29;;
2710;SDS011;20721;47.402;8.550;2022-08-25T05:03:41;7.56;;;7.56;;
2710;SDS011;20721;47.402;8.550;2022-08-25T05:04:42;7.73;;;7.73;;
2710;SDS011;20721;47.402;8.550;2022-08-25T05:05:41;8.05;;;8.05;;
2710;SDS011;20721;47.402;8.550;2022-08-25T05:07:41;7.69;;;7.69;;
2710;SDS011;20721;47.402;8.550;2022-08-25T05:08:41;7.01;;;7.01;;
2710;SDS011;20721;47.402;8.550;2022-08-25T05:10:42;8.04;;;8.04;;
2710;SDS011;20721;47.402;8.550;2022-08-25T05:11:43;8.10;;;8.10;;
2710;SDS011;20721;47.402;8.550;2022-08-25T05:12:43;7.63;;;7.63;;
2710;SDS011;20721;47.402;8.550;2022-08-25T05:13:42;6.75;;;6.75;;
2710;SDS011;20721;47.402;8.550;2022-08-25T05:19:41;8.07;;;8.07;;
2710;SDS011;20721;47.402;8.550;2022-08-25T05:20:41;8.07;;;8.07;;
2710;SDS011;20721;47.402;8.550;2022-08-25T05:21:43;6.96;;;6.96;;
2710;SDS011;20721;47.402;8.550;2022-08-25T05:22:44;8.17;;;8.17;;
2710;SDS011;20721;47.402;8.550;2022-08-25T05:23:41;8.15;;;8.15;;
2710;SDS011;20721;47.402;8.550;2022-08-25T05:24:41;7.95;;;7.95;;
2710;SDS011;20721;47.402;8.550;2022-08-25T05:25:41;7.70;;;7.70;;
2710;SDS011;20721;47.402;8.550;2022-08-25T05:26:41;8.09;;;8.09;;
2710;SDS011;20721;47.402;8.550;2022-08-25T05:27:42;8.37;;;8.37;;
2710;SDS011;20721;47.402;8.550;2022-08-25T05:28:41;8.11;;;8.11;;
2710;SDS011;20721;47.402;8.550;2022-08-25T05:29:41;7.99;;;7.99;;
2710;SDS011;20721;47.402;8.550;2022-08-25T05:30:41;7.98;;;7.98;;
2710;SDS011;20721;47.402;8.550;2022-08-25T05:31:41;8.50;;;8.50;;
2710;SDS011;20721;47.402;8.550;2022-08-25T05:32:41;8.63;;;8.63;;
2710;SDS011;20721;47.402;8.550;2022-08-25T05:33:43;8.35;;;8.35;;
2710;SDS011;20721;47.402;8.550;2022-08-25T05:34:41;8.52;;;8.52;;
2710;SDS011;20721;47.402;8.550;2022-08-25T05:35:41;8.56;;;8.56;;
2710;SDS011;20721;47.402;8.550;2022-08-25T05:36:42;8.74;;;8.74;;
2710;SDS011;20721;47.402;8.550;2022-08-25T05:37:41;7.88;;;7.88;;
2710;SDS011;20721;47.402;8.550;2022-08-25T05:38:41;8.96;;;8.96;;
2710;SDS011;20721;47.402;8.550;2022-08-25T05:39:42;8.08;;;8.08;;
2710;SDS011;20721;47.402;8.550;2022-08-25T05:40:41;7.63;;;7.63;;
2710;SDS011;20721;47.402;8.550;2022-08-25T05:41:42;8.87;;;8.87;;
2710;SDS011;20721;47.402;8.550;2022-08-25T05:42:41;8.71;;;8.71;;
2710;SDS011;20721;47.402;8.550;2022-08-25T05:43:44;8.79;;;8.79;;
2710;SDS011;20721;47.402;8.550;2022-08-25T05:44:41;8.02;;;8.02;;
2710;SDS011;20721;47.402;8.550;2022-08-25T05:45:41;7.97;;;7.97;;
2710;SDS011;20721;47.402;8.550;2022-08-25T05:46:42;8.59;;;8.59;;
2710;SDS011;20721;47.402;8.550;2022-08-25T05:47:42;8.15;;;8.15;;
2710;SDS011;20721;47.402;8.550;2022-08-25T05:48:41;8.40;;;8.40;;
2710;SDS011;20721;47.402;8.550;2022-08-25T05:49:41;9.04;;;9.04;;
2710;SDS011;20721;47.402;8.550;2022-08-25T05:50:41;8.37;;;8.37;;
2710;SDS011;20721;47.402;8.550;2022-08-25T05:51:41;8.50;;;8.50;;
2710;SDS011;20721;47.402;8.550;2022-08-25T05:52:42;8.61;;;8.61;;
2710;SDS011;20721;47.402;8.550;2022-08-25T05:53:45;7.69;;;7.69;;
2710;SDS011;20721;47.402;8.550;2022-08-25T05:54:41;8.74;;;8.74;;
2710;SDS011;20721;47.402;8.550;2022-08-25T05:55:43;8.55;;;8.55;;
2710;SDS011;20721;47.402;8.550;2022-08-25T05:56:41;8.26;;;8.26;;
2710;SDS011;20721;47.402;8.550;2022-08-25T05:57:41;8.91;;;8.91;;
2710;SDS011;20721;47.402;8.550;2022-08-25T05:58:41;8.49;;;8.49;;
2710;SDS011;20721;47.402;8.550;2022-08-25T05:59:41;8.84;;;8.84;;
2710;SDS011;20721;47.402;8.550;2022-08-25T06:00:41;8.19;;;8.19;;
2710;SDS011;20721;47.402;8.550;2022-08-25T06:01:51;8.95;;;8.95;;
2710;SDS011;20721;47.402;8.550;2022-08-25T06:02:51;8.35;;;8.35;;
2710;SDS011;20721;47.402;8.550;2022-08-25T06:03:41;8.69;;;8.69;;
2710;SDS011;20721;47.402;8.550;2022-08-25T06:04:41;8.74;;;8.74;;
2710;SDS011;20721;47.402;8.550;2022-08-25T06:05:41;8.51;;;8.51;;
2710;SDS011;20721;47.402;8.550;2022-08-25T06:06:41;8.91;;;8.91;;
2710;SDS011;20721;47.402;8.550;2022-08-25T06:07:42;8.32;;;8.29;;
2710;SDS011;20721;47.402;8.550;2022-08-25T06:08:42;8.58;;;8.58;;
2710;SDS011;20721;47.402;8.550;2022-08-25T06:09:41;8.47;;;8.47;;
2710;SDS011;20721;47.402;8.550;2022-08-25T06:10:41;8.64;;;8.64;;
2710;SDS011;20721;47.402;8.550;2022-08-25T06:11:41;8.22;;;8.22;;
2710;SDS011;20721;47.402;8.550;2022-08-25T06:12:43;9.48;;;9.48;;
2710;SDS011;20721;47.402;8.550;2022-08-25T06:14:41;8.22;;;8.22;;
2710;SDS011;20721;47.402;8.550;2022-08-25T06:16:41;9.63;;;9.63;;
2710;SDS011;20721;47.402;8.550;2022-08-25T06:17:41;9.55;;;9.55;;
2710;SDS011;20721;47.402;8.550;2022-08-25T06:18:41;9.70;;;9.70;;
2710;SDS011;20721;47.402;8.550;2022-08-25T06:19:41;8.96;;;8.96;;
2710;SDS011;20721;47.402;8.550;2022-08-25T06:20:41;9.54;;;9.53;;
2710;SDS011;20721;47.402;8.550;2022-08-25T06:21:41;9.46;;;9.46;;
2710;SDS011;20721;47.402;8.550;2022-08-25T06:22:41;9.71;;;9.71;;
2710;SDS011;20721;47.402;8.550;2022-08-25T06:23:41;9.54;;;9.54;;
2710;SDS011;20721;47.402;8.550;2022-08-25T06:24:42;10.17;;;10.17;;
2710;SDS011;20721;47.402;8.550;2022-08-25T06:25:42;9.79;;;9.79;;
2710;SDS011;20721;47.402;8.550;2022-08-25T06:26:41;9.45;;;9.45;;
2710;SDS011;20721;47.402;8.550;2022-08-25T06:27:41;9.09;;;9.09;;
2710;SDS011;20721;47.402;8.550;2022-08-25T06:28:41;9.16;;;9.16;;
2710;SDS011;20721;47.402;8.550;2022-08-25T06:29:41;9.35;;;9.35;;
2710;SDS011;20721;47.402;8.550;2022-08-25T06:30:41;9.18;;;9.18;;
2710;SDS011;20721;47.402;8.550;2022-08-25T06:31:41;8.87;;;8.87;;
2710;SDS011;20721;47.402;8.550;2022-08-25T06:32:42;8.44;;;8.44;;
2710;SDS011;20721;47.402;8.550;2022-08-25T06:33:41;9.70;;;9.70;;
2710;SDS011;20721;47.402;8.550;2022-08-25T06:34:41;9.45;;;9.45;;
2710;SDS011;20721;47.402;8.550;2022-08-25T06:35:42;10.00;;;10.00;;
2710;SDS011;20721;47.402;8.550;2022-08-25T06:36:42;8.58;;;8.58;;
2710;SDS011;20721;47.402;8.550;2022-08-25T06:37:41;8.13;;;8.13;;
2710;SDS011;20721;47.402;8.550;2022-08-25T06:38:41;8.30;;;8.30;;
2710;SDS011;20721;47.402;8.550;2022-08-25T06:39:41;8.12;;;8.12;;
2710;SDS011;20721;47.402;8.550;2022-08-25T06:40:41;8.43;;;8.43;;
2710;SDS011;20721;47.402;8.550;2022-08-25T06:41:49;8.71;;;8.71;;
2710;SDS011;20721;47.402;8.550;2022-08-25T06:42:41;8.68;;;8.68;;
2710;SDS011;20721;47.402;8.550;2022-08-25T06:43:42;9.24;;;9.24;;
2710;SDS011;20721;47.402;8.550;2022-08-25T06:44:41;8.87;;;8.87;;
2710;SDS011;20721;47.402;8.550;2022-08-25T06:45:41;8.39;;;8.39;;
2710;SDS011;20721;47.402;8.550;2022-08-25T06:46:47;8.44;;;8.44;;
2710;SDS011;20721;47.402;8.550;2022-08-25T06:47:41;8.68;;;8.68;;
2710;SDS011;20721;47.402;8.550;2022-08-25T06:48:41;8.34;;;8.34;;
2710;SDS011;20721;47.402;8.550;2022-08-25T06:49:46;7.68;;;7.68;;
2710;SDS011;20721;47.402;8.550;2022-08-25T06:50:41;9.15;;;9.15;;
2710;SDS011;20721;47.402;8.550;2022-08-25T06:51:41;8.16;;;8.16;;
2710;SDS011;20721;47.402;8.550;2022-08-25T06:52:42;7.81;;;7.81;;
2710;SDS011;20721;47.402;8.550;2022-08-25T06:53:42;8.33;;;8.33;;
2710;SDS011;20721;47.402;8.550;2022-08-25T06:54:41;8.49;;;8.49;;
2710;SDS011;20721;47.402;8.550;2022-08-25T06:55:41;7.59;;;7.59;;
2710;SDS011;20721;47.402;8.550;2022-08-25T06:56:41;7.72;;;7.72;;
2710;SDS011;20721;47.402;8.550;2022-08-25T06:57:44;8.96;;;8.96;;
2710;SDS011;20721;47.402;8.550;2022-08-25T06:58:41;8.43;;;8.43;;
2710;SDS011;20721;47.402;8.550;2022-08-25T06:59:43;8.13;;;8.13;;
2710;SDS011;20721;47.402;8.550;2022-08-25T07:00:42;7.53;;;7.53;;
2710;SDS011;20721;47.402;8.550;2022-08-25T07:01:42;8.08;;;8.08;;
2710;SDS011;20721;47.402;8.550;2022-08-25T07:02:47;7.94;;;7.94;;
2710;SDS011;20721;47.402;8.550;2022-08-25T07:03:42;8.51;;;8.51;;
2710;SDS011;20721;47.402;8.550;2022-08-25T07:04:42;7.45;;;7.45;;
2710;SDS011;20721;47.402;8.550;2022-08-25T07:05:58;8.47;;;8.47;;
2710;SDS011;20721;47.402;8.550;2022-08-25T07:06:42;8.32;;;8.32;;
2710;SDS011;20721;47.402;8.550;2022-08-25T07:07:53;8.13;;;8.13;;
2710;SDS011;20721;47.402;8.550;2022-08-25T07:08:41;8.68;;;8.68;;
2710;SDS011;20721;47.402;8.550;2022-08-25T07:09:42;7.96;;;7.96;;
2710;SDS011;20721;47.402;8.550;2022-08-25T07:10:42;8.91;;;8.91;;
2710;SDS011;20721;47.402;8.550;2022-08-25T07:11:43;8.66;;;8.66;;
2710;SDS011;20721;47.402;8.550;2022-08-25T07:12:41;9.40;;;9.40;;
2710;SDS011;20721;47.402;8.550;2022-08-25T07:13:43;8.21;;;8.21;;
2710;SDS011;20721;47.402;8.550;2022-08-25T07:14:41;8.93;;;8.93;;
2710;SDS011;20721;47.402;8.550;2022-08-25T07:15:41;8.55;;;8.55;;
2710;SDS011;20721;47.402;8.550;2022-08-25T07:16:41;8.35;;;8.35;;
2710;SDS011;20721;47.402;8.550;2022-08-25T07:17:41;8.16;;;8.16;;
2710;SDS011;20721;47.402;8.550;2022-08-25T07:18:43;9.12;;;9.12;;
2710;SDS011;20721;47.402;8.550;2022-08-25T07:19:41;8.81;;;8.81;;
2710;SDS011;20721;47.402;8.550;2022-08-25T07:20:44;8.51;;;8.51;;
2710;SDS011;20721;47.402;8.550;2022-08-25T07:21:48;7.54;;;7.54;;
2710;SDS011;20721;47.402;8.550;2022-08-25T07:22:41;7.84;;;7.84;;
2710;SDS011;20721;47.402;8.550;2022-08-25T07:23:41;8.09;;;8.09;;
2710;SDS011;20721;47.402;8.550;2022-08-25T07:24:42;8.55;;;8.55;;
2710;SDS011;20721;47.402;8.550;2022-08-25T07:25:42;8.02;;;8.02;;
2710;SDS011;20721;47.402;8.550;2022-08-25T07:26:49;8.71;;;8.71;;
2710;SDS011;20721;47.402;8.550;2022-08-25T07:27:41;7.71;;;7.71;;
2710;SDS011;20721;47.402;8.550;2022-08-25T07:28:42;7.10;;;7.10;;
2710;SDS011;20721;47.402;8.550;2022-08-25T07:29:47;7.06;;;7.06;;
2710;SDS011;20721;47.402;8.550;2022-08-25T07:30:42;7.47;;;7.47;;
2710;SDS011;20721;47.402;8.550;2022-08-25T07:31:41;7.42;;;7.42;;
2710;SDS011;20721;47.402;8.550;2022-08-25T07:32:41;7.73;;;7.73;;
2710;SDS011;20721;47.402;8.550;2022-08-25T07:33:41;7.71;;;7.71;;
2710;SDS011;20721;47.402;8.550;2022-08-25T07:34:51;7.82;;;7.82;;
2710;SDS011;20721;47.402;8.550;2022-08-25T07:35:48;7.63;;;7.63;;